N4877P -KASE
Flight info
| Callsign | N4877P |
|---|---|
| Flight time | N/A |
| Altitude | VFR |
| Route | |
| Aircraft | C172/L-DOV/C |
Departure
| Time | N/A |
|---|---|
| Airport | - |
Arrival
| Time | 2026-04-22 00:43 |
|---|---|
| Airport | Aspen-Pitkin County Airport (Sardy Field) (KASE) |
| Time | Latitude | Longitude | Altitude | Speed | Heading |
|---|---|---|---|---|---|
| 2026-04-22 00:35 | 39.12587 | -106.73665 | 12617 ft | 94 kts | 308° |
| 2026-04-22 00:35 | 39.13045 | -106.74279 | 12610 ft | 93 kts | 309° |
| 2026-04-22 00:35 | 39.13496 | -106.74884 | 12607 ft | 93 kts | 306° |
| 2026-04-22 00:35 | 39.13948 | -106.75487 | 12557 ft | 92 kts | 312° |
| 2026-04-22 00:36 | 39.14400 | -106.76071 | 12327 ft | 91 kts | 311° |
| 2026-04-22 00:36 | 39.14850 | -106.76655 | 12097 ft | 92 kts | 310° |
| 2026-04-22 00:36 | 39.15302 | -106.77248 | 11879 ft | 92 kts | 311° |
| 2026-04-22 00:36 | 39.15753 | -106.77841 | 11648 ft | 93 kts | 311° |
| 2026-04-22 00:37 | 39.16204 | -106.78440 | 11423 ft | 93 kts | 311° |
| 2026-04-22 00:37 | 39.16656 | -106.79038 | 11182 ft | 94 kts | 311° |
| 2026-04-22 00:37 | 39.17113 | -106.79646 | 10938 ft | 94 kts | 311° |
| 2026-04-22 00:37 | 39.17568 | -106.80260 | 10691 ft | 94 kts | 311° |
| 2026-04-22 00:38 | 39.18025 | -106.80868 | 10436 ft | 95 kts | 313° |
| 2026-04-22 00:38 | 39.18483 | -106.81471 | 10193 ft | 95 kts | 313° |
| 2026-04-22 00:38 | 39.18939 | -106.82076 | 9952 ft | 95 kts | 312° |
| 2026-04-22 00:38 | 39.19414 | -106.82709 | 9710 ft | 99 kts | 312° |
| 2026-04-22 00:39 | 39.19896 | -106.83346 | 9446 ft | 102 kts | 312° |
| 2026-04-22 00:39 | 39.20398 | -106.84010 | 9097 ft | 108 kts | 313° |
| 2026-04-22 00:39 | 39.20884 | -106.84762 | 8753 ft | 111 kts | 306° |
| 2026-04-22 00:39 | 39.21327 | -106.85491 | 8637 ft | 96 kts | 309° |
| 2026-04-22 00:40 | 39.21894 | -106.85975 | 8575 ft | 95 kts | 337° |
| 2026-04-22 00:40 | 39.22508 | -106.86192 | 8584 ft | 88 kts | 346° |
| 2026-04-22 00:40 | 39.23111 | -106.86339 | 8574 ft | 88 kts | 347° |
| 2026-04-22 00:40 | 39.23706 | -106.86493 | 8566 ft | 81 kts | 350° |
| 2026-04-22 00:41 | 39.24240 | -106.86627 | 8534 ft | 76 kts | 350° |
| 2026-04-22 00:41 | 39.24754 | -106.86784 | 8545 ft | 75 kts | 347° |
| 2026-04-22 00:41 | 39.25127 | -106.87192 | 8568 ft | 67 kts | 282° |
| 2026-04-22 00:41 | 39.25025 | -106.87755 | 8518 ft | 67 kts | 234° |
| 2026-04-22 00:42 | 39.24593 | -106.87918 | 8349 ft | 72 kts | 167° |
| 2026-04-22 00:42 | 39.24119 | -106.87727 | 8103 ft | 72 kts | 164° |
| 2026-04-22 00:42 | 39.23656 | -106.87520 | 7845 ft | 71 kts | 160° |
| 2026-04-22 00:42 | 39.23217 | -106.87315 | 7732 ft | 61 kts | 160° |
| 2026-04-22 00:43 | 39.22928 | -106.87180 | 7743 ft | 15 kts | 162° |
| 2026-04-22 00:43 | 39.22895 | -106.87093 | 7743 ft | 12 kts | 73° |
| 2026-04-22 00:43 | 39.22912 | -106.87030 | 7741 ft | 0 kts | 69° |
| 2026-04-22 00:44 | 39.22912 | -106.87029 | 7741 ft | 1 kts | 69° |
| 2026-04-22 00:44 | 39.22912 | -106.87026 | 7741 ft | 1 kts | 148° |
| 2026-04-22 00:44 | 39.22844 | -106.87012 | 7745 ft | 19 kts | 161° |
| 2026-04-22 00:45 | 39.22722 | -106.86954 | 7754 ft | 15 kts | 161° |
| 2026-04-22 00:45 | 39.22671 | -106.86891 | 7758 ft | 9 kts | 71° |
| 2026-04-22 00:45 | 39.22652 | -106.86861 | 7759 ft | 3 kts | 158° |
| 2026-04-22 00:45 | 39.22608 | -106.86848 | 7763 ft | 3 kts | 199° |
| 2026-04-22 00:46 | 39.22606 | -106.86854 | 7763 ft | 0 kts | 250° |
| 2026-04-22 00:58 | 39.22602 | -106.86861 | 7764 ft | 2 kts | 224° |
| 2026-04-22 00:58 | 39.22590 | -106.86879 | 7764 ft | 3 kts | 228° |
| 2026-04-22 00:58 | 39.22561 | -106.86877 | 7767 ft | 5 kts | 158° |
| 2026-04-22 00:58 | 39.22530 | -106.86861 | 7769 ft | 4 kts | 159° |
| 2026-04-22 00:59 | 39.22501 | -106.86847 | 7771 ft | 5 kts | 158° |
| 2026-04-22 00:59 | 39.22461 | -106.86822 | 7775 ft | 7 kts | 151° |
| 2026-04-22 00:59 | 39.22416 | -106.86806 | 7779 ft | 7 kts | 166° |
| 2026-04-22 00:59 | 39.22363 | -106.86783 | 7783 ft | 8 kts | 159° |
| 2026-04-22 01:00 | 39.22304 | -106.86755 | 7788 ft | 9 kts | 160° |
| 2026-04-22 01:00 | 39.22238 | -106.86723 | 7794 ft | 10 kts | 160° |
| 2026-04-22 01:00 | 39.22167 | -106.86690 | 7800 ft | 10 kts | 159° |
| 2026-04-22 01:00 | 39.22094 | -106.86655 | 7807 ft | 11 kts | 160° |
| 2026-04-22 01:01 | 39.22089 | -106.86652 | 7808 ft | 0 kts | 159° |
| 2026-04-22 01:01 | 39.22086 | -106.86651 | 7808 ft | 2 kts | 159° |
| 2026-04-22 01:01 | 39.22050 | -106.86634 | 7812 ft | 9 kts | 159° |
| 2026-04-22 01:01 | 39.21973 | -106.86597 | 7819 ft | 13 kts | 161° |
| 2026-04-22 01:02 | 39.21892 | -106.86559 | 7825 ft | 12 kts | 161° |
| 2026-04-22 01:02 | 39.21813 | -106.86521 | 7832 ft | 11 kts | 159° |
| 2026-04-22 01:02 | 39.21737 | -106.86484 | 7838 ft | 11 kts | 160° |
| 2026-04-22 01:02 | 39.21662 | -106.86450 | 7844 ft | 11 kts | 160° |
| 2026-04-22 01:03 | 39.21584 | -106.86413 | 7849 ft | 12 kts | 159° |
| 2026-04-22 01:03 | 39.21499 | -106.86372 | 7854 ft | 13 kts | 160° |
| 2026-04-22 01:03 | 39.21409 | -106.86330 | 7859 ft | 14 kts | 160° |
| 2026-04-22 01:03 | 39.21313 | -106.86285 | 7865 ft | 15 kts | 161° |
| 2026-04-22 01:04 | 39.21224 | -106.86244 | 7868 ft | 0 kts | 179° |
| 2026-04-22 01:04 | 39.21212 | -106.86245 | 7869 ft | 4 kts | 188° |
| 2026-04-22 01:05 | 39.21180 | -106.86294 | 7873 ft | 10 kts | 268° |
| 2026-04-22 01:05 | 39.21354 | -106.86425 | 7868 ft | 53 kts | 336° |
| 2026-04-22 01:05 | 39.21836 | -106.86652 | 7843 ft | 86 kts | 339° |
| 2026-04-22 01:05 | 39.22409 | -106.86879 | 7971 ft | 85 kts | 341° |
| 2026-04-22 01:06 | 39.22957 | -106.87073 | 8125 ft | 80 kts | 342° |
| 2026-04-22 01:06 | 39.23529 | -106.87206 | 8230 ft | 81 kts | 338° |
| 2026-04-22 01:06 | 39.24039 | -106.87502 | 8357 ft | 80 kts | 328° |
| 2026-04-22 01:06 | 39.24552 | -106.87813 | 8481 ft | 82 kts | 330° |
| 2026-04-22 01:07 | 39.25082 | -106.88112 | 8597 ft | 83 kts | 333° |
| 2026-04-22 01:07 | 39.25624 | -106.88400 | 8713 ft | 84 kts | 333° |
| 2026-04-22 01:07 | 39.26183 | -106.88685 | 8823 ft | 85 kts | 334° |
| 2026-04-22 01:07 | 39.26745 | -106.88966 | 8929 ft | 86 kts | 334° |
| 2026-04-22 01:08 | 39.27309 | -106.89246 | 9041 ft | 86 kts | 335° |
| 2026-04-22 01:08 | 39.27877 | -106.89523 | 9150 ft | 85 kts | 336° |
| 2026-04-22 01:08 | 39.28439 | -106.89796 | 9259 ft | 85 kts | 336° |
| 2026-04-22 01:08 | 39.28993 | -106.90067 | 9372 ft | 85 kts | 335° |
| 2026-04-22 01:09 | 39.29450 | -106.90520 | 9489 ft | 82 kts | 308° |
| 2026-04-22 01:09 | 39.29809 | -106.91086 | 9611 ft | 81 kts | 303° |
| 2026-04-22 01:09 | 39.30156 | -106.91666 | 9738 ft | 81 kts | 302° |
| 2026-04-22 01:09 | 39.30501 | -106.92250 | 9867 ft | 81 kts | 302° |
| 2026-04-22 01:10 | 39.30841 | -106.92832 | 9989 ft | 81 kts | 302° |
| 2026-04-22 01:10 | 39.31190 | -106.93431 | 10084 ft | 83 kts | 302° |
| 2026-04-22 01:10 | 39.31546 | -106.94039 | 10176 ft | 85 kts | 302° |
| 2026-04-22 01:10 | 39.31911 | -106.94661 | 10267 ft | 87 kts | 303° |
| 2026-04-22 01:11 | 39.32278 | -106.95286 | 10360 ft | 88 kts | 303° |
| 2026-04-22 01:11 | 39.32653 | -106.95926 | 10453 ft | 88 kts | 303° |
| 2026-04-22 01:11 | 39.33042 | -106.96584 | 10551 ft | 89 kts | 304° |
| 2026-04-22 01:11 | 39.33419 | -106.97218 | 10650 ft | 89 kts | 304° |
| 2026-04-22 01:12 | 39.33796 | -106.97854 | 10744 ft | 89 kts | 303° |
| 2026-04-22 01:12 | 39.34173 | -106.98491 | 10837 ft | 88 kts | 303° |
| 2026-04-22 01:12 | 39.34544 | -106.99123 | 10926 ft | 89 kts | 303° |
| 2026-04-22 01:12 | 39.34919 | -106.99763 | 11020 ft | 89 kts | 303° |
| 2026-04-22 01:13 | 39.35295 | -107.00404 | 11112 ft | 89 kts | 302° |
| 2026-04-22 01:13 | 39.35676 | -107.01057 | 11205 ft | 90 kts | 302° |
| 2026-04-22 01:13 | 39.36055 | -107.01709 | 11291 ft | 91 kts | 302° |
| 2026-04-22 01:13 | 39.36438 | -107.02364 | 11361 ft | 93 kts | 302° |
| 2026-04-22 01:14 | 39.36835 | -107.03041 | 11430 ft | 94 kts | 304° |
| 2026-04-22 01:14 | 39.37306 | -107.03645 | 11503 ft | 96 kts | 313° |
| 2026-04-22 01:14 | 39.37811 | -107.04230 | 11577 ft | 96 kts | 314° |
| 2026-04-22 01:14 | 39.38307 | -107.04803 | 11649 ft | 96 kts | 314° |
| 2026-04-22 01:15 | 39.38817 | -107.05392 | 11722 ft | 96 kts | 314° |
| 2026-04-22 01:15 | 39.39317 | -107.05971 | 11791 ft | 96 kts | 314° |
| 2026-04-22 01:15 | 39.39819 | -107.06552 | 11862 ft | 95 kts | 314° |
| 2026-04-22 01:15 | 39.40257 | -107.07179 | 11929 ft | 93 kts | 290° |
| 2026-04-22 01:16 | 39.40310 | -107.07986 | 12003 ft | 88 kts | 259° |
| 2026-04-22 01:16 | 39.40200 | -107.08778 | 12068 ft | 88 kts | 255° |
| 2026-04-22 01:16 | 39.40073 | -107.09563 | 12133 ft | 88 kts | 254° |
| 2026-04-22 01:16 | 39.39941 | -107.10340 | 12198 ft | 88 kts | 253° |
| 2026-04-22 01:17 | 39.39806 | -107.11120 | 12266 ft | 88 kts | 253° |
| 2026-04-22 01:17 | 39.39667 | -107.11897 | 12332 ft | 88 kts | 253° |
| 2026-04-22 01:17 | 39.39529 | -107.12659 | 12400 ft | 87 kts | 252° |
| 2026-04-22 01:17 | 39.39387 | -107.13436 | 12471 ft | 87 kts | 252° |
| 2026-04-22 01:18 | 39.39245 | -107.14201 | 12536 ft | 87 kts | 252° |
| 2026-04-22 01:18 | 39.39104 | -107.14951 | 12630 ft | 84 kts | 252° |
| 2026-04-22 01:18 | 39.38966 | -107.15684 | 12711 ft | 84 kts | 251° |
| 2026-04-22 01:18 | 39.38817 | -107.16460 | 12702 ft | 92 kts | 253° |
| 2026-04-22 01:19 | 39.38663 | -107.17279 | 12702 ft | 95 kts | 253° |
| 2026-04-22 01:19 | 39.38506 | -107.18130 | 12703 ft | 96 kts | 253° |
| 2026-04-22 01:19 | 39.38355 | -107.18949 | 12706 ft | 92 kts | 254° |
| 2026-04-22 01:19 | 39.38221 | -107.19736 | 12714 ft | 88 kts | 262° |
| 2026-04-22 01:20 | 39.38443 | -107.20479 | 12725 ft | 92 kts | 307° |
| 2026-04-22 01:20 | 39.38955 | -107.20998 | 12731 ft | 94 kts | 319° |
| 2026-04-22 01:20 | 39.39498 | -107.21465 | 12727 ft | 94 kts | 321° |
| 2026-04-22 01:20 | 39.40066 | -107.21940 | 12499 ft | 98 kts | 323° |
| 2026-04-22 01:21 | 39.40638 | -107.22404 | 12234 ft | 97 kts | 324° |
| 2026-04-22 01:21 | 39.41215 | -107.22872 | 11963 ft | 97 kts | 324° |
| 2026-04-22 01:21 | 39.41785 | -107.23337 | 11694 ft | 96 kts | 325° |
| 2026-04-22 01:21 | 39.42353 | -107.23801 | 11426 ft | 96 kts | 325° |
| 2026-04-22 01:22 | 39.42909 | -107.24254 | 11161 ft | 95 kts | 326° |
| 2026-04-22 01:22 | 39.43479 | -107.24721 | 10833 ft | 99 kts | 325° |
| 2026-04-22 01:22 | 39.44066 | -107.25201 | 10486 ft | 102 kts | 326° |
| 2026-04-22 01:22 | 39.44668 | -107.25693 | 10128 ft | 103 kts | 327° |
| 2026-04-22 01:23 | 39.45270 | -107.26187 | 9771 ft | 104 kts | 327° |
| 2026-04-22 01:23 | 39.45884 | -107.26694 | 9409 ft | 105 kts | 327° |
| 2026-04-22 01:23 | 39.46497 | -107.27199 | 9054 ft | 106 kts | 328° |
| 2026-04-22 01:23 | 39.47117 | -107.27710 | 8694 ft | 107 kts | 328° |
| 2026-04-22 01:24 | 39.47736 | -107.28219 | 8338 ft | 107 kts | 328° |
| 2026-04-22 01:24 | 39.48360 | -107.28729 | 7980 ft | 105 kts | 336° |
| 2026-04-22 01:24 | 39.48915 | -107.29328 | 7494 ft | 111 kts | 316° |
| 2026-04-22 01:24 | 39.49334 | -107.30045 | 7230 ft | 82 kts | 327° |
| 2026-04-22 01:25 | 39.49913 | -107.30431 | 6585 ft | 94 kts | 338° |
| 2026-04-22 01:25 | 39.50474 | -107.30772 | 6325 ft | 96 kts | 324° |
| 2026-04-22 01:25 | 39.51055 | -107.31188 | 6289 ft | 90 kts | 326° |
| 2026-04-22 01:25 | 39.51223 | -107.31755 | 6400 ft | 62 kts | 229° |
| 2026-04-22 01:26 | 39.50789 | -107.31677 | 6370 ft | 74 kts | 147° |
| 2026-04-22 01:26 | 39.50339 | -107.31322 | 6385 ft | 73 kts | 157° |
| 2026-04-22 01:26 | 39.49882 | -107.31033 | 6422 ft | 72 kts | 157° |
| 2026-04-22 01:26 | 39.49485 | -107.30687 | 6457 ft | 69 kts | 119° |
| 2026-04-22 01:27 | 39.49702 | -107.30286 | 6288 ft | 80 kts | 327° |
| 2026-04-22 01:27 | 39.50184 | -107.30646 | 5979 ft | 76 kts | 327° |
| 2026-04-22 01:27 | 39.50525 | -107.30867 | 5973 ft | 19 kts | 333° |
| 2026-04-22 01:27 | 39.50565 | -107.30856 | 5972 ft | 0 kts | 56° |
| 2026-04-22 01:28 | 39.50581 | -107.30856 | 5971 ft | 4 kts | 323° |
| 2026-04-22 01:28 | 39.50597 | -107.30872 | 5972 ft | 8 kts | 319° |
| 2026-04-22 01:28 | 39.50692 | -107.30930 | 5975 ft | 15 kts | 336° |
| 2026-04-22 01:29 | 39.50794 | -107.30970 | 5974 ft | 12 kts | 336° |
| 2026-04-22 01:29 | 39.50873 | -107.31022 | 5976 ft | 13 kts | 332° |
| 2026-04-22 01:29 | 39.50944 | -107.31070 | 5977 ft | 8 kts | 333° |
| 2026-04-22 01:29 | 39.50992 | -107.31100 | 5978 ft | 4 kts | 328° |
| 2026-04-22 01:30 | 39.50993 | -107.31100 | 5978 ft | 0 kts | 328° |
| 2026-04-22 01:31 | 39.51001 | -107.31107 | 5978 ft | 7 kts | 330° |
| 2026-04-22 01:31 | 39.51012 | -107.31140 | 5979 ft | 4 kts | 243° |
| 2026-04-22 01:31 | 39.50993 | -107.31168 | 5979 ft | 0 kts | 152° |
| 2026-04-22 01:33 | 39.50925 | -107.31123 | 5979 ft | 36 kts | 154° |
| 2026-04-22 01:33 | 39.50545 | -107.30884 | 5974 ft | 79 kts | 154° |
| 2026-04-22 01:33 | 39.49997 | -107.30561 | 6088 ft | 85 kts | 169° |
| 2026-04-22 01:33 | 39.49423 | -107.30453 | 6292 ft | 80 kts | 171° |
| 2026-04-22 01:34 | 39.49318 | -107.29953 | 6511 ft | 75 kts | 16° |
| 2026-04-22 01:34 | 39.49888 | -107.30030 | 6570 ft | 89 kts | 343° |
| 2026-04-22 01:34 | 39.50514 | -107.30246 | 6729 ft | 91 kts | 335° |
| 2026-04-22 01:34 | 39.51096 | -107.30552 | 6925 ft | 91 kts | 329° |
| 2026-04-22 01:35 | 39.51657 | -107.30936 | 7155 ft | 89 kts | 328° |
| 2026-04-22 01:35 | 39.52218 | -107.31238 | 7390 ft | 87 kts | 343° |
| 2026-04-22 01:35 | 39.52760 | -107.31046 | 7620 ft | 85 kts | 45° |
| 2026-04-22 01:35 | 39.52933 | -107.30296 | 7736 ft | 95 kts | 98° |
| 2026-04-22 01:36 | 39.52823 | -107.29434 | 7900 ft | 93 kts | 104° |
| 2026-04-22 01:36 | 39.52710 | -107.28601 | 8052 ft | 95 kts | 96° |
| 2026-04-22 01:36 | 39.52710 | -107.27732 | 8205 ft | 96 kts | 89° |
| 2026-04-22 01:36 | 39.52776 | -107.26873 | 8378 ft | 94 kts | 84° |
| 2026-04-22 01:37 | 39.52890 | -107.26033 | 8556 ft | 93 kts | 79° |
| 2026-04-22 01:37 | 39.53038 | -107.25219 | 8727 ft | 92 kts | 77° |
| 2026-04-22 01:37 | 39.53208 | -107.24433 | 8892 ft | 91 kts | 75° |
| 2026-04-22 01:37 | 39.53400 | -107.23655 | 9064 ft | 90 kts | 73° |
| 2026-04-22 01:38 | 39.53608 | -107.22875 | 9234 ft | 89 kts | 72° |
| 2026-04-22 01:38 | 39.53822 | -107.22124 | 9411 ft | 89 kts | 71° |
| 2026-04-22 01:38 | 39.54047 | -107.21371 | 9558 ft | 90 kts | 70° |
| 2026-04-22 01:38 | 39.54283 | -107.20609 | 9707 ft | 91 kts | 70° |
| 2026-04-22 01:39 | 39.54527 | -107.19840 | 9845 ft | 92 kts | 71° |
| 2026-04-22 01:39 | 39.54776 | -107.19071 | 9976 ft | 92 kts | 70° |
| 2026-04-22 01:39 | 39.55027 | -107.18299 | 10078 ft | 93 kts | 71° |
| 2026-04-22 01:39 | 39.55284 | -107.17523 | 10203 ft | 92 kts | 70° |
| 2026-04-22 01:40 | 39.55541 | -107.16753 | 10341 ft | 92 kts | 70° |
| 2026-04-22 01:40 | 39.55800 | -107.15981 | 10481 ft | 92 kts | 70° |
| 2026-04-22 01:40 | 39.56058 | -107.15221 | 10613 ft | 92 kts | 69° |
| 2026-04-22 01:40 | 39.56327 | -107.14417 | 10589 ft | 101 kts | 71° |
| 2026-04-22 01:41 | 39.56611 | -107.13554 | 10571 ft | 106 kts | 71° |
| 2026-04-22 01:41 | 39.56910 | -107.12656 | 10569 ft | 108 kts | 70° |
| 2026-04-22 01:41 | 39.57215 | -107.11751 | 10561 ft | 109 kts | 71° |
| 2026-04-22 01:41 | 39.57520 | -107.10854 | 10558 ft | 109 kts | 70° |
| 2026-04-22 01:42 | 39.57830 | -107.09943 | 10561 ft | 110 kts | 69° |
| 2026-04-22 01:42 | 39.58145 | -107.09028 | 10563 ft | 110 kts | 65° |
| 2026-04-22 01:42 | 39.58843 | -107.08669 | 10404 ft | 119 kts | 357° |
| 2026-04-22 01:42 | 39.59684 | -107.08713 | 10255 ft | 123 kts | 355° |
| 2026-04-22 01:43 | 39.60560 | -107.08765 | 10129 ft | 123 kts | 0° |
| 2026-04-22 01:43 | 39.61379 | -107.08606 | 10107 ft | 117 kts | 17° |
| 2026-04-22 01:43 | 39.62119 | -107.08237 | 10082 ft | 110 kts | 28° |
| 2026-04-22 01:43 | 39.62763 | -107.07697 | 10003 ft | 111 kts | 50° |
| 2026-04-22 01:44 | 39.63228 | -107.06871 | 9903 ft | 114 kts | 60° |
| 2026-04-22 01:44 | 39.63633 | -107.05971 | 9774 ft | 120 kts | 67° |
| 2026-04-22 01:44 | 39.63940 | -107.04890 | 9466 ft | 135 kts | 77° |
| 2026-04-22 01:44 | 39.64166 | -107.03683 | 9199 ft | 139 kts | 80° |
| 2026-04-22 01:45 | 39.64334 | -107.02465 | 9017 ft | 134 kts | 84° |
| 2026-04-22 01:45 | 39.64342 | -107.01305 | 8931 ft | 127 kts | 106° |
| 2026-04-22 01:45 | 39.63953 | -107.00259 | 8770 ft | 127 kts | 126° |
| 2026-04-22 01:45 | 39.63390 | -106.99397 | 8691 ft | 120 kts | 142° |
| 2026-04-22 01:46 | 39.62789 | -106.98683 | 8629 ft | 116 kts | 135° |
| 2026-04-22 01:46 | 39.62289 | -106.97829 | 8539 ft | 116 kts | 124° |
| 2026-04-22 01:46 | 39.61909 | -106.96894 | 8459 ft | 117 kts | 113° |
| 2026-04-22 01:46 | 39.61755 | -106.95859 | 8345 ft | 121 kts | 90° |
| 2026-04-22 01:47 | 39.61850 | -106.94759 | 8245 ft | 120 kts | 81° |
| 2026-04-22 01:47 | 39.62024 | -106.93722 | 8240 ft | 114 kts | 79° |
| 2026-04-22 01:47 | 39.62227 | -106.92715 | 8199 ft | 107 kts | 78° |
| 2026-04-22 01:47 | 39.62396 | -106.91796 | 8134 ft | 103 kts | 76° |
| 2026-04-22 01:48 | 39.62612 | -106.90916 | 8039 ft | 103 kts | 74° |
| 2026-04-22 01:48 | 39.62757 | -106.90041 | 7999 ft | 95 kts | 82° |
| 2026-04-22 01:48 | 39.62838 | -106.89263 | 8037 ft | 81 kts | 83° |
| 2026-04-22 01:48 | 39.62947 | -106.88539 | 8017 ft | 84 kts | 79° |
| 2026-04-22 01:49 | 39.63081 | -106.87792 | 8049 ft | 83 kts | 70° |
| 2026-04-22 01:49 | 39.63390 | -106.87171 | 8079 ft | 83 kts | 26° |
| 2026-04-22 01:49 | 39.63948 | -106.87013 | 8124 ft | 81 kts | 354° |
| 2026-04-22 01:49 | 39.64488 | -106.87131 | 8189 ft | 77 kts | 336° |
| 2026-04-22 01:50 | 39.64784 | -106.87701 | 8156 ft | 82 kts | 287° |
| 2026-04-22 01:50 | 39.64947 | -106.88422 | 8145 ft | 85 kts | 273° |
| 2026-04-22 01:50 | 39.65001 | -106.89220 | 8078 ft | 88 kts | 275° |
| 2026-04-22 01:50 | 39.65026 | -106.90015 | 8057 ft | 85 kts | 270° |
| 2026-04-22 01:51 | 39.65007 | -106.90745 | 8054 ft | 79 kts | 266° |
| 2026-04-22 01:51 | 39.64997 | -106.91453 | 8063 ft | 75 kts | 268° |
| 2026-04-22 01:51 | 39.64976 | -106.92138 | 8011 ft | 80 kts | 262° |
| 2026-04-22 01:51 | 39.64904 | -106.92893 | 7940 ft | 82 kts | 266° |
| 2026-04-22 01:52 | 39.64875 | -106.93625 | 7903 ft | 81 kts | 255° |
| 2026-04-22 01:52 | 39.64377 | -106.93928 | 7809 ft | 92 kts | 172° |
| 2026-04-22 01:52 | 39.63720 | -106.93765 | 7688 ft | 94 kts | 178° |
| 2026-04-22 01:52 | 39.63271 | -106.93263 | 7636 ft | 97 kts | 96° |
| 2026-04-22 01:53 | 39.63306 | -106.92409 | 7628 ft | 91 kts | 87° |
| 2026-04-22 01:53 | 39.63322 | -106.91581 | 7616 ft | 93 kts | 88° |
| 2026-04-22 01:53 | 39.63335 | -106.90762 | 7649 ft | 89 kts | 91° |
| 2026-04-22 01:53 | 39.63335 | -106.89942 | 7635 ft | 89 kts | 89° |
| 2026-04-22 01:54 | 39.63377 | -106.89122 | 7547 ft | 91 kts | 69° |
| 2026-04-22 01:54 | 39.63803 | -106.88655 | 7477 ft | 78 kts | 11° |
| 2026-04-22 01:54 | 39.64332 | -106.88676 | 7265 ft | 75 kts | 316° |
| 2026-04-22 01:54 | 39.64508 | -106.89256 | 6945 ft | 73 kts | 275° |
| 2026-04-22 01:55 | 39.64464 | -106.89879 | 6711 ft | 64 kts | 263° |
| 2026-04-22 01:55 | 39.64407 | -106.90408 | 6606 ft | 53 kts | 262° |
| 2026-04-22 01:55 | 39.64361 | -106.90797 | 6596 ft | 34 kts | 265° |
| 2026-04-22 01:55 | 39.64291 | -106.90944 | 6596 ft | 16 kts | 177° |
| 2026-04-22 01:56 | 39.64243 | -106.90937 | 6596 ft | 0 kts | 172° |
| 2026-04-22 01:56 | 39.64216 | -106.90932 | 6596 ft | 9 kts | 174° |
| 2026-04-22 01:56 | 39.64189 | -106.90877 | 6597 ft | 8 kts | 76° |
| 2026-04-22 01:56 | 39.64200 | -106.90801 | 6597 ft | 0 kts | 79° |
| 2026-04-22 01:57 | 39.64201 | -106.90791 | 6597 ft | 5 kts | 84° |
| 2026-04-22 01:57 | 39.64206 | -106.90682 | 6597 ft | 13 kts | 81° |
| 2026-04-22 01:57 | 39.64228 | -106.90637 | 6597 ft | 0 kts | 354° |
| 2026-04-22 01:58 | 39.64262 | -106.90629 | 6597 ft | 11 kts | 40° |
| 2026-04-22 01:58 | 39.64288 | -106.90460 | 6597 ft | 9 kts | 80° |
| 2026-04-22 01:59 | 39.64289 | -106.90456 | 6597 ft | 0 kts | 79° |
| 2026-04-22 01:59 | 39.64300 | -106.90372 | 6597 ft | 22 kts | 81° |
| 2026-04-22 01:59 | 39.64328 | -106.90105 | 6597 ft | 28 kts | 84° |
| 2026-04-22 01:59 | 39.64361 | -106.90018 | 6597 ft | 0 kts | 21° |
| 2026-04-22 02:00 | 39.64373 | -106.90014 | 6597 ft | 6 kts | 10° |
| 2026-04-22 02:00 | 39.64430 | -106.90026 | 6596 ft | 11 kts | 331° |
| 2026-04-22 02:01 | 39.64447 | -106.90058 | 6596 ft | 0 kts | 264° |
| 2026-04-22 02:01 | 39.64444 | -106.90087 | 6596 ft | 19 kts | 262° |
| 2026-04-22 02:01 | 39.64400 | -106.90487 | 6597 ft | 64 kts | 261° |
| 2026-04-22 02:02 | 39.64340 | -106.91121 | 6714 ft | 70 kts | 263° |
| 2026-04-22 02:02 | 39.64299 | -106.91733 | 6887 ft | 66 kts | 264° |
| 2026-04-22 02:02 | 39.64254 | -106.92359 | 7014 ft | 70 kts | 261° |
| 2026-04-22 02:02 | 39.64166 | -106.92954 | 7177 ft | 68 kts | 234° |
| 2026-04-22 02:03 | 39.63700 | -106.92994 | 7305 ft | 80 kts | 152° |
| 2026-04-22 02:03 | 39.63499 | -106.92289 | 7393 ft | 91 kts | 88° |
| 2026-04-22 02:03 | 39.63537 | -106.91493 | 7580 ft | 84 kts | 73° |
| 2026-04-22 02:03 | 39.63757 | -106.90783 | 7719 ft | 84 kts | 63° |
| 2026-04-22 02:04 | 39.64185 | -106.89339 | 7990 ft | 86 kts | 70° |
| 2026-04-22 02:04 | 39.64357 | -106.88601 | 8121 ft | 86 kts | 73° |
| 2026-04-22 02:04 | 39.64516 | -106.87839 | 8244 ft | 87 kts | 75° |
| 2026-04-22 02:05 | 39.64660 | -106.87056 | 8355 ft | 89 kts | 77° |
| 2026-04-22 02:05 | 39.64793 | -106.86253 | 8471 ft | 91 kts | 79° |
| 2026-04-22 02:05 | 39.64917 | -106.85440 | 8583 ft | 91 kts | 80° |
| 2026-04-22 02:05 | 39.65032 | -106.84625 | 8698 ft | 91 kts | 81° |
| 2026-04-22 02:06 | 39.65140 | -106.83814 | 8815 ft | 91 kts | 82° |
| 2026-04-22 02:06 | 39.65246 | -106.82990 | 8930 ft | 91 kts | 82° |
| 2026-04-22 02:06 | 39.65345 | -106.82181 | 9048 ft | 90 kts | 82° |
| 2026-04-22 02:06 | 39.65442 | -106.81368 | 9166 ft | 90 kts | 83° |
| 2026-04-22 02:07 | 39.65536 | -106.80560 | 9286 ft | 90 kts | 83° |
| 2026-04-22 02:07 | 39.65629 | -106.79752 | 9401 ft | 90 kts | 83° |
| 2026-04-22 02:07 | 39.65704 | -106.78952 | 9505 ft | 90 kts | 94° |
| 2026-04-22 02:07 | 39.65453 | -106.78228 | 9614 ft | 86 kts | 134° |
| 2026-04-22 02:08 | 39.65026 | -106.77689 | 9716 ft | 86 kts | 141° |
| 2026-04-22 02:08 | 39.64573 | -106.77168 | 9823 ft | 86 kts | 140° |
| 2026-04-22 02:08 | 39.64114 | -106.76647 | 9929 ft | 86 kts | 141° |
| 2026-04-22 02:08 | 39.63655 | -106.76135 | 10042 ft | 85 kts | 141° |
| 2026-04-22 02:09 | 39.63208 | -106.75639 | 10154 ft | 84 kts | 141° |
| 2026-04-22 02:09 | 39.62766 | -106.75154 | 10267 ft | 82 kts | 142° |
| 2026-04-22 02:09 | 39.62333 | -106.74680 | 10380 ft | 81 kts | 143° |
| 2026-04-22 02:09 | 39.61897 | -106.74206 | 10495 ft | 81 kts | 143° |
| 2026-04-22 02:10 | 39.61465 | -106.73736 | 10607 ft | 81 kts | 143° |
| 2026-04-22 02:10 | 39.61037 | -106.73271 | 10719 ft | 80 kts | 142° |
| 2026-04-22 02:10 | 39.60604 | -106.72803 | 10834 ft | 80 kts | 143° |
| 2026-04-22 02:10 | 39.60175 | -106.72339 | 10952 ft | 79 kts | 143° |
| 2026-04-22 02:11 | 39.59745 | -106.71879 | 11067 ft | 79 kts | 143° |
| 2026-04-22 02:11 | 39.59314 | -106.71419 | 11190 ft | 79 kts | 144° |
| 2026-04-22 02:11 | 39.58890 | -106.70968 | 11310 ft | 78 kts | 144° |
| 2026-04-22 02:11 | 39.58467 | -106.70520 | 11428 ft | 78 kts | 144° |
| 2026-04-22 02:12 | 39.58047 | -106.70075 | 11544 ft | 77 kts | 143° |
| 2026-04-22 02:12 | 39.57624 | -106.69626 | 11659 ft | 77 kts | 144° |
| 2026-04-22 02:12 | 39.57209 | -106.69183 | 11775 ft | 76 kts | 143° |
| 2026-04-22 02:12 | 39.56790 | -106.68736 | 11851 ft | 81 kts | 143° |
| 2026-04-22 02:13 | 39.56318 | -106.68242 | 11833 ft | 91 kts | 144° |
| 2026-04-22 02:13 | 39.55804 | -106.67705 | 11825 ft | 96 kts | 144° |
| 2026-04-22 02:13 | 39.55270 | -106.67143 | 11829 ft | 98 kts | 144° |
| 2026-04-22 02:13 | 39.54771 | -106.66609 | 11943 ft | 90 kts | 143° |
| 2026-04-22 02:14 | 39.54300 | -106.66100 | 12067 ft | 85 kts | 143° |
| 2026-04-22 02:14 | 39.53848 | -106.65611 | 12193 ft | 82 kts | 144° |
| 2026-04-22 02:14 | 39.53412 | -106.65140 | 12308 ft | 80 kts | 144° |
| 2026-04-22 02:14 | 39.52988 | -106.64683 | 12435 ft | 78 kts | 144° |
| 2026-04-22 02:15 | 39.52573 | -106.64233 | 12562 ft | 76 kts | 144° |
| 2026-04-22 02:15 | 39.52163 | -106.63794 | 12667 ft | 77 kts | 144° |
| 2026-04-22 02:15 | 39.51739 | -106.63339 | 12733 ft | 80 kts | 144° |
| 2026-04-22 02:15 | 39.51304 | -106.62873 | 12785 ft | 82 kts | 144° |
| 2026-04-22 02:16 | 39.50856 | -106.62399 | 12860 ft | 84 kts | 144° |
| 2026-04-22 02:16 | 39.50406 | -106.61919 | 12978 ft | 84 kts | 146° |
| 2026-04-22 02:16 | 39.49947 | -106.61432 | 13090 ft | 85 kts | 146° |
| 2026-04-22 02:16 | 39.49493 | -106.60947 | 13156 ft | 85 kts | 145° |
| 2026-04-22 02:17 | 39.49031 | -106.60454 | 13228 ft | 83 kts | 145° |
| 2026-04-22 02:17 | 39.48637 | -106.59893 | 13310 ft | 87 kts | 127° |
| 2026-04-22 02:17 | 39.48352 | -106.59165 | 13375 ft | 91 kts | 126° |
| 2026-04-22 02:17 | 39.47865 | -106.58736 | 13364 ft | 85 kts | 167° |
| 2026-04-22 02:18 | 39.47310 | -106.58482 | 13433 ft | 83 kts | 155° |
| 2026-04-22 02:18 | 39.46820 | -106.58042 | 13417 ft | 88 kts | 148° |
| 2026-04-22 02:18 | 39.46322 | -106.57540 | 13415 ft | 92 kts | 146° |
| 2026-04-22 02:18 | 39.45806 | -106.57008 | 13399 ft | 93 kts | 146° |
| 2026-04-22 02:19 | 39.45301 | -106.56471 | 13408 ft | 93 kts | 144° |
| 2026-04-22 02:19 | 39.44794 | -106.55925 | 13399 ft | 95 kts | 144° |
| 2026-04-22 02:19 | 39.44297 | -106.55393 | 13417 ft | 90 kts | 144° |
| 2026-04-22 02:19 | 39.43819 | -106.54881 | 13434 ft | 89 kts | 145° |
| 2026-04-22 02:20 | 39.43342 | -106.54372 | 13425 ft | 88 kts | 145° |
| 2026-04-22 02:20 | 39.42868 | -106.53867 | 13416 ft | 85 kts | 144° |
| 2026-04-22 02:20 | 39.42409 | -106.53374 | 13381 ft | 89 kts | 144° |
| 2026-04-22 02:20 | 39.41904 | -106.52843 | 13279 ft | 96 kts | 144° |
| 2026-04-22 02:21 | 39.41370 | -106.52280 | 13149 ft | 101 kts | 145° |
| 2026-04-22 02:21 | 39.40824 | -106.51702 | 13031 ft | 101 kts | 144° |
| 2026-04-22 02:21 | 39.40301 | -106.51141 | 13066 ft | 93 kts | 144° |
| 2026-04-22 02:21 | 39.39806 | -106.50610 | 13102 ft | 93 kts | 144° |
| 2026-04-22 02:22 | 39.39291 | -106.50063 | 13093 ft | 96 kts | 145° |
| 2026-04-22 02:22 | 39.38776 | -106.49515 | 13056 ft | 96 kts | 145° |
| 2026-04-22 02:22 | 39.38267 | -106.48972 | 13037 ft | 92 kts | 146° |
| 2026-04-22 02:22 | 39.37780 | -106.48451 | 13029 ft | 89 kts | 145° |
| 2026-04-22 02:23 | 39.37310 | -106.47948 | 13028 ft | 86 kts | 144° |
| 2026-04-22 02:23 | 39.36849 | -106.47452 | 13026 ft | 84 kts | 144° |
| 2026-04-22 02:23 | 39.36394 | -106.46967 | 13041 ft | 85 kts | 145° |
| 2026-04-22 02:23 | 39.35934 | -106.46477 | 13039 ft | 85 kts | 145° |
| 2026-04-22 02:24 | 39.35469 | -106.46001 | 13036 ft | 85 kts | 143° |
| 2026-04-22 02:24 | 39.35028 | -106.45474 | 13036 ft | 85 kts | 140° |
| 2026-04-22 02:24 | 39.34590 | -106.44941 | 13032 ft | 86 kts | 141° |
| 2026-04-22 02:24 | 39.34292 | -106.44246 | 13031 ft | 92 kts | 108° |
| 2026-04-22 02:25 | 39.34178 | -106.43427 | 13037 ft | 93 kts | 105° |
| 2026-04-22 02:25 | 39.34077 | -106.42590 | 13000 ft | 93 kts | 107° |
| 2026-04-22 02:25 | 39.33984 | -106.41785 | 12974 ft | 87 kts | 104° |
| 2026-04-22 02:25 | 39.33892 | -106.41005 | 13001 ft | 88 kts | 105° |
| 2026-04-22 02:26 | 39.33790 | -106.40194 | 13026 ft | 94 kts | 105° |
| 2026-04-22 02:26 | 39.33676 | -106.39327 | 13032 ft | 98 kts | 105° |
| 2026-04-22 02:26 | 39.33435 | -106.38522 | 13018 ft | 94 kts | 130° |
| 2026-04-22 02:26 | 39.33031 | -106.37854 | 13009 ft | 93 kts | 135° |
| 2026-04-22 02:27 | 39.32623 | -106.37221 | 13009 ft | 92 kts | 134° |
| 2026-04-22 02:27 | 39.32211 | -106.36579 | 13011 ft | 91 kts | 134° |
| 2026-04-22 02:27 | 39.31809 | -106.35922 | 12848 ft | 96 kts | 136° |
| 2026-04-22 02:27 | 39.31343 | -106.35324 | 12706 ft | 95 kts | 140° |
| 2026-04-22 02:28 | 39.30853 | -106.34750 | 12568 ft | 93 kts | 147° |
| 2026-04-22 02:28 | 39.30316 | -106.34288 | 12414 ft | 94 kts | 154° |
| 2026-04-22 02:28 | 39.29742 | -106.33918 | 12293 ft | 90 kts | 161° |
| 2026-04-22 02:28 | 39.29159 | -106.33585 | 12130 ft | 92 kts | 159° |
| 2026-04-22 02:29 | 39.28564 | -106.33286 | 11971 ft | 92 kts | 163° |
| 2026-04-22 02:29 | 39.27953 | -106.33014 | 11767 ft | 93 kts | 169° |
| 2026-04-22 02:29 | 39.27325 | -106.32828 | 11546 ft | 92 kts | 169° |
| 2026-04-22 02:29 | 39.26694 | -106.32686 | 11278 ft | 95 kts | 174° |
| 2026-04-22 02:30 | 39.26050 | -106.32552 | 11071 ft | 90 kts | 173° |
| 2026-04-22 02:30 | 39.25514 | -106.32428 | 11002 ft | 73 kts | 172° |
| 2026-04-22 02:30 | 39.24989 | -106.32293 | 10751 ft | 78 kts | 176° |
| 2026-04-22 02:30 | 39.24455 | -106.32194 | 10528 ft | 77 kts | 174° |
| 2026-04-22 02:31 | 39.23922 | -106.32074 | 10301 ft | 78 kts | 174° |
| 2026-04-22 02:31 | 39.23416 | -106.31968 | 10135 ft | 72 kts | 174° |
| 2026-04-22 02:31 | 39.22925 | -106.31863 | 9963 ft | 72 kts | 173° |
| 2026-04-22 02:31 | 39.22529 | -106.31776 | 9945 ft | 26 kts | 171° |
| 2026-04-22 02:32 | 39.22483 | -106.31696 | 9953 ft | 7 kts | 83° |
| 2026-04-22 02:32 | 39.22503 | -106.31661 | 9956 ft | 7 kts | 10° |
| 2026-04-22 02:32 | 39.22567 | -106.31642 | 9958 ft | 7 kts | 69° |
| 2026-04-22 02:32 | 39.22569 | -106.31632 | 9959 ft | 0 kts | 80° |